sensor_id;sensor_type;location;lat;lon;timestamp;P1;durP1;ratioP1;P2;durP2;ratioP2
62457;SDS011;48509;52.122;5.250;2023-09-18T00:00:08;33.21;;;29.6;;
62457;SDS011;48509;52.122;5.250;2023-09-18T00:01:46;36.81;;;30.2;;
62457;SDS011;48509;52.122;5.250;2023-09-18T00:03:22;35.81;;;27.3;;
62457;SDS011;48509;52.122;5.250;2023-09-18T00:06:34;36.1;;;28.3;;
62457;SDS011;48509;52.122;5.250;2023-09-18T00:08:10;29.6;;;26.0;;
62457;SDS011;48509;52.122;5.250;2023-09-18T00:09:46;30.0;;;26.8;;
62457;SDS011;48509;52.122;5.250;2023-09-18T00:11:22;34.71;;;27.5;;
62457;SDS011;48509;52.122;5.250;2023-09-18T00:14:35;28.5;;;25.5;;
62457;SDS011;48509;52.122;5.250;2023-09-18T00:16:13;31.1;;;27.9;;
62457;SDS011;48509;52.122;5.250;2023-09-18T00:17:49;29.3;;;26.0;;
62457;SDS011;48509;52.122;5.250;2023-09-18T00:21:01;32.9;;;29.5;;
62457;SDS011;48509;52.122;5.250;2023-09-18T00:22:38;34.0;;;30.3;;
62457;SDS011;48509;52.122;5.250;2023-09-18T00:24:14;32.0;;;28.5;;
62457;SDS011;48509;52.122;5.250;2023-09-18T00:27:27;33.1;;;28.1;;
62457;SDS011;48509;52.122;5.250;2023-09-18T00:29:03;31.2;;;25.4;;
62457;SDS011;48509;52.122;5.250;2023-09-18T00:30:42;29.4;;;26.2;;
62457;SDS011;48509;52.122;5.250;2023-09-18T00:32:23;48.8;;;34.81;;
62457;SDS011;48509;52.122;5.250;2023-09-18T00:35:35;30.7;;;27.3;;
62457;SDS011;48509;52.122;5.250;2023-09-18T00:37:11;36.31;;;28.4;;
62457;SDS011;48509;52.122;5.250;2023-09-18T00:38:47;33.6;;;28.4;;
62457;SDS011;48509;52.122;5.250;2023-09-18T00:42:00;36.81;;;31.0;;
62457;SDS011;48509;52.122;5.250;2023-09-18T00:43:36;30.9;;;27.5;;
62457;SDS011;48509;52.122;5.250;2023-09-18T00:45:12;29.6;;;26.5;;
62457;SDS011;48509;52.122;5.250;2023-09-18T00:48:25;36.0;;;31.8;;
62457;SDS011;48509;52.122;5.250;2023-09-18T00:50:01;31.5;;;25.6;;
62457;SDS011;48509;52.122;5.250;2023-09-18T00:51:38;32.8;;;29.0;;
62457;SDS011;48509;52.122;5.250;2023-09-18T00:53:17;32.21;;;28.8;;
62457;SDS011;48509;52.122;5.250;2023-09-18T00:56:35;35.4;;;30.0;;
62457;SDS011;48509;52.122;5.250;2023-09-18T00:58:12;34.6;;;29.6;;
62457;SDS011;48509;52.122;5.250;2023-09-18T00:59:49;32.6;;;28.6;;
62457;SDS011;48509;52.122;5.250;2023-09-18T01:03:03;32.3;;;27.2;;
62457;SDS011;48509;52.122;5.250;2023-09-18T01:04:40;36.6;;;30.4;;
62457;SDS011;48509;52.122;5.250;2023-09-18T01:06:17;32.8;;;29.2;;
62457;SDS011;48509;52.122;5.250;2023-09-18T01:07:53;30.2;;;27.1;;
62457;SDS011;48509;52.122;5.250;2023-09-18T01:11:10;32.4;;;28.6;;
62457;SDS011;48509;52.122;5.250;2023-09-18T01:12:55;41.9;;;32.8;;
62457;SDS011;48509;52.122;5.250;2023-09-18T01:14:44;29.5;;;26.1;;
62457;SDS011;48509;52.122;5.250;2023-09-18T01:16:31;29.2;;;25.9;;
62457;SDS011;48509;52.122;5.250;2023-09-18T01:19:50;31.2;;;27.2;;
62457;SDS011;48509;52.122;5.250;2023-09-18T01:21:26;32.71;;;28.7;;
62457;SDS011;48509;52.122;5.250;2023-09-18T01:23:02;30.9;;;27.6;;
62457;SDS011;48509;52.122;5.250;2023-09-18T01:24:39;43.1;;;33.5;;
62457;SDS011;48509;52.122;5.250;2023-09-18T01:27:52;43.3;;;29.1;;
62457;SDS011;48509;52.122;5.250;2023-09-18T01:29:28;33.71;;;27.9;;
62457;SDS011;48509;52.122;5.250;2023-09-18T01:31:04;33.6;;;28.6;;
62457;SDS011;48509;52.122;5.250;2023-09-18T01:34:19;80.91;;;40.71;;
62457;SDS011;48509;52.122;5.250;2023-09-18T01:36:01;31.3;;;27.9;;
62457;SDS011;48509;52.122;5.250;2023-09-18T01:37:40;33.71;;;28.1;;
62457;SDS011;48509;52.122;5.250;2023-09-18T01:39:19;30.8;;;27.4;;
62457;SDS011;48509;52.122;5.250;2023-09-18T01:42:33;36.5;;;30.5;;
62457;SDS011;48509;52.122;5.250;2023-09-18T01:44:11;35.31;;;29.8;;
62457;SDS011;48509;52.122;5.250;2023-09-18T01:45:47;34.4;;;27.7;;
62457;SDS011;48509;52.122;5.250;2023-09-18T01:48:59;36.6;;;30.0;;
62457;SDS011;48509;52.122;5.250;2023-09-18T01:50:36;30.9;;;27.1;;
62457;SDS011;48509;52.122;5.250;2023-09-18T01:52:13;28.6;;;25.6;;
62457;SDS011;48509;52.122;5.250;2023-09-18T01:55:29;30.2;;;27.0;;
62457;SDS011;48509;52.122;5.250;2023-09-18T01:57:05;32.5;;;28.4;;
62457;SDS011;48509;52.122;5.250;2023-09-18T01:58:42;37.0;;;29.3;;
62457;SDS011;48509;52.122;5.250;2023-09-18T02:00:18;31.5;;;27.9;;
62457;SDS011;48509;52.122;5.250;2023-09-18T02:03:30;60.4;;;35.6;;
62457;SDS011;48509;52.122;5.250;2023-09-18T02:05:06;32.71;;;28.2;;
62457;SDS011;48509;52.122;5.250;2023-09-18T02:06:43;31.3;;;27.9;;
62457;SDS011;48509;52.122;5.250;2023-09-18T02:09:56;28.1;;;25.2;;
62457;SDS011;48509;52.122;5.250;2023-09-18T02:11:32;27.1;;;24.2;;
62457;SDS011;48509;52.122;5.250;2023-09-18T02:13:08;49.5;;;35.9;;
62457;SDS011;48509;52.122;5.250;2023-09-18T02:16:20;27.2;;;23.8;;
62457;SDS011;48509;52.122;5.250;2023-09-18T02:17:56;28.5;;;24.8;;
62457;SDS011;48509;52.122;5.250;2023-09-18T02:19:33;30.6;;;27.3;;
62457;SDS011;48509;52.122;5.250;2023-09-18T02:21:09;30.8;;;25.4;;
62457;SDS011;48509;52.122;5.250;2023-09-18T02:24:22;30.0;;;26.7;;
62457;SDS011;48509;52.122;5.250;2023-09-18T02:25:58;53.2;;;31.8;;
62457;SDS011;48509;52.122;5.250;2023-09-18T02:27:34;28.6;;;25.5;;
62457;SDS011;48509;52.122;5.250;2023-09-18T02:30:46;31.6;;;27.4;;
62457;SDS011;48509;52.122;5.250;2023-09-18T02:32:22;30.5;;;26.3;;
62457;SDS011;48509;52.122;5.250;2023-09-18T02:33:59;26.5;;;23.7;;
62457;SDS011;48509;52.122;5.250;2023-09-18T02:37:11;28.7;;;24.0;;
62457;SDS011;48509;52.122;5.250;2023-09-18T02:38:47;27.0;;;23.0;;
62457;SDS011;48509;52.122;5.250;2023-09-18T02:40:23;30.4;;;25.4;;
62457;SDS011;48509;52.122;5.250;2023-09-18T02:41:59;32.71;;;26.9;;
62457;SDS011;48509;52.122;5.250;2023-09-18T02:45:11;27.0;;;24.3;;
62457;SDS011;48509;52.122;5.250;2023-09-18T02:46:47;29.2;;;26.0;;
62457;SDS011;48509;52.122;5.250;2023-09-18T02:48:24;26.2;;;23.4;;
62457;SDS011;48509;52.122;5.250;2023-09-18T02:51:35;29.3;;;25.5;;
62457;SDS011;48509;52.122;5.250;2023-09-18T02:53:16;28.7;;;23.8;;
62457;SDS011;48509;52.122;5.250;2023-09-18T02:54:53;60.2;;;34.0;;
62457;SDS011;48509;52.122;5.250;2023-09-18T02:58:05;25.3;;;22.6;;
62457;SDS011;48509;52.122;5.250;2023-09-18T02:59:41;30.0;;;25.2;;
62457;SDS011;48509;52.122;5.250;2023-09-18T03:01:18;27.6;;;22.9;;
62457;SDS011;48509;52.122;5.250;2023-09-18T03:02:54;28.6;;;23.7;;
62457;SDS011;48509;52.122;5.250;2023-09-18T03:06:07;28.5;;;21.7;;
62457;SDS011;48509;52.122;5.250;2023-09-18T03:07:43;25.4;;;22.5;;
62457;SDS011;48509;52.122;5.250;2023-09-18T03:09:19;25.1;;;20.2;;
62457;SDS011;48509;52.122;5.250;2023-09-18T03:12:31;26.7;;;22.1;;
62457;SDS011;48509;52.122;5.250;2023-09-18T03:14:07;24.2;;;20.7;;
62457;SDS011;48509;52.122;5.250;2023-09-18T03:15:44;28.1;;;23.5;;
62457;SDS011;48509;52.122;5.250;2023-09-18T03:18:57;23.4;;;20.9;;
62457;SDS011;48509;52.122;5.250;2023-09-18T03:20:33;23.4;;;20.41;;
62457;SDS011;48509;52.122;5.250;2023-09-18T03:22:09;23.4;;;20.41;;
62457;SDS011;48509;52.122;5.250;2023-09-18T03:25:21;26.3;;;21.6;;
62457;SDS011;48509;52.122;5.250;2023-09-18T03:26:57;24.9;;;21.0;;
62457;SDS011;48509;52.122;5.250;2023-09-18T03:28:34;24.8;;;21.2;;
62457;SDS011;48509;52.122;5.250;2023-09-18T03:30:10;39.9;;;28.4;;
62457;SDS011;48509;52.122;5.250;2023-09-18T03:33:23;22.9;;;20.5;;
62457;SDS011;48509;52.122;5.250;2023-09-18T03:34:59;26.5;;;21.2;;
62457;SDS011;48509;52.122;5.250;2023-09-18T03:36:35;50.3;;;27.3;;
62457;SDS011;48509;52.122;5.250;2023-09-18T03:39:47;24.1;;;20.5;;
62457;SDS011;48509;52.122;5.250;2023-09-18T03:41:23;43.4;;;26.9;;
62457;SDS011;48509;52.122;5.250;2023-09-18T03:42:59;28.0;;;21.9;;
62457;SDS011;48509;52.122;5.250;2023-09-18T03:46:13;23.4;;;20.11;;
62457;SDS011;48509;52.122;5.250;2023-09-18T03:47:49;33.4;;;24.9;;
62457;SDS011;48509;52.122;5.250;2023-09-18T03:49:26;26.9;;;22.7;;
62457;SDS011;48509;52.122;5.250;2023-09-18T03:51:03;23.7;;;20.3;;
62457;SDS011;48509;52.122;5.250;2023-09-18T03:54:16;27.3;;;23.9;;
62457;SDS011;48509;52.122;5.250;2023-09-18T03:55:52;30.8;;;23.4;;
62457;SDS011;48509;52.122;5.250;2023-09-18T03:57:28;26.5;;;22.7;;
62457;SDS011;48509;52.122;5.250;2023-09-18T04:00:41;35.6;;;24.3;;
62457;SDS011;48509;52.122;5.250;2023-09-18T04:02:17;23.6;;;21.1;;
62457;SDS011;48509;52.122;5.250;2023-09-18T04:03:53;31.1;;;24.7;;
62457;SDS011;48509;52.122;5.250;2023-09-18T04:07:05;26.2;;;23.4;;
62457;SDS011;48509;52.122;5.250;2023-09-18T04:08:41;31.6;;;27.2;;
62457;SDS011;48509;52.122;5.250;2023-09-18T04:10:18;26.8;;;23.8;;
62457;SDS011;48509;52.122;5.250;2023-09-18T04:13:30;30.1;;;24.5;;
62457;SDS011;48509;52.122;5.250;2023-09-18T04:15:06;31.9;;;24.4;;
62457;SDS011;48509;52.122;5.250;2023-09-18T04:16:42;29.3;;;22.4;;
62457;SDS011;48509;52.122;5.250;2023-09-18T04:18:18;31.1;;;26.4;;
62457;SDS011;48509;52.122;5.250;2023-09-18T04:21:30;30.1;;;26.6;;
62457;SDS011;48509;52.122;5.250;2023-09-18T04:23:23;29.2;;;26.0;;
62457;SDS011;48509;52.122;5.250;2023-09-18T04:25:01;35.0;;;26.4;;
62457;SDS011;48509;52.122;5.250;2023-09-18T04:26:37;25.6;;;21.2;;
62457;SDS011;48509;52.122;5.250;2023-09-18T04:29:49;26.8;;;23.5;;
62457;SDS011;48509;52.122;5.250;2023-09-18T04:31:25;23.9;;;21.4;;
62457;SDS011;48509;52.122;5.250;2023-09-18T04:33:01;26.9;;;20.9;;
62457;SDS011;48509;52.122;5.250;2023-09-18T04:36:13;29.2;;;24.1;;
62457;SDS011;48509;52.122;5.250;2023-09-18T04:37:49;28.0;;;22.9;;
62457;SDS011;48509;52.122;5.250;2023-09-18T04:39:26;26.2;;;21.8;;
62457;SDS011;48509;52.122;5.250;2023-09-18T04:42:38;21.0;;;18.0;;
62457;SDS011;48509;52.122;5.250;2023-09-18T04:44:15;21.7;;;17.2;;
62457;SDS011;48509;52.122;5.250;2023-09-18T04:45:51;18.91;;;16.61;;
62457;SDS011;48509;52.122;5.250;2023-09-18T04:49:03;12.6;;;11.3;;
62457;SDS011;48509;52.122;5.250;2023-09-18T04:50:39;12.2;;;9.6;;
62457;SDS011;48509;52.122;5.250;2023-09-18T04:52:15;12.1;;;9.9;;
62457;SDS011;48509;52.122;5.250;2023-09-18T04:53:51;17.5;;;11.2;;
62457;SDS011;48509;52.122;5.250;2023-09-18T04:57:04;13.6;;;10.4;;
62457;SDS011;48509;52.122;5.250;2023-09-18T04:58:40;15.9;;;11.1;;
62457;SDS011;48509;52.122;5.250;2023-09-18T05:00:16;16.2;;;11.6;;
62457;SDS011;48509;52.122;5.250;2023-09-18T05:03:28;14.3;;;10.6;;
62457;SDS011;48509;52.122;5.250;2023-09-18T05:05:04;15.8;;;10.0;;
62457;SDS011;48509;52.122;5.250;2023-09-18T05:06:41;15.3;;;11.0;;
62457;SDS011;48509;52.122;5.250;2023-09-18T05:09:53;16.9;;;12.1;;
62457;SDS011;48509;52.122;5.250;2023-09-18T05:11:30;19.0;;;12.7;;
62457;SDS011;48509;52.122;5.250;2023-09-18T05:13:06;17.3;;;10.7;;
62457;SDS011;48509;52.122;5.250;2023-09-18T05:14:43;14.3;;;11.6;;
62457;SDS011;48509;52.122;5.250;2023-09-18T05:17:55;19.8;;;12.1;;
62457;SDS011;48509;52.122;5.250;2023-09-18T05:19:32;11.1;;;9.31;;
62457;SDS011;48509;52.122;5.250;2023-09-18T05:21:08;11.4;;;8.81;;
62457;SDS011;48509;52.122;5.250;2023-09-18T05:24:22;8.81;;;7.7;;
62457;SDS011;48509;52.122;5.250;2023-09-18T05:25:57;11.6;;;8.71;;
62457;SDS011;48509;52.122;5.250;2023-09-18T05:27:33;9.4;;;8.4;;
62457;SDS011;48509;52.122;5.250;2023-09-18T05:30:45;11.9;;;9.31;;
62457;SDS011;48509;52.122;5.250;2023-09-18T05:32:21;14.2;;;9.1;;
62457;SDS011;48509;52.122;5.250;2023-09-18T05:33:58;13.4;;;8.5;;
62457;SDS011;48509;52.122;5.250;2023-09-18T05:37:12;13.5;;;10.21;;
62457;SDS011;48509;52.122;5.250;2023-09-18T05:38:48;14.5;;;11.8;;
62457;SDS011;48509;52.122;5.250;2023-09-18T05:40:25;12.4;;;10.4;;
62457;SDS011;48509;52.122;5.250;2023-09-18T05:42:02;14.3;;;10.0;;
62457;SDS011;48509;52.122;5.250;2023-09-18T05:45:15;14.0;;;10.7;;
62457;SDS011;48509;52.122;5.250;2023-09-18T05:46:51;18.11;;;12.0;;
62457;SDS011;48509;52.122;5.250;2023-09-18T05:48:27;11.4;;;10.21;;
62457;SDS011;48509;52.122;5.250;2023-09-18T05:51:40;12.5;;;10.8;;
62457;SDS011;48509;52.122;5.250;2023-09-18T05:53:16;12.6;;;10.21;;
62457;SDS011;48509;52.122;5.250;2023-09-18T05:54:51;13.5;;;10.9;;
62457;SDS011;48509;52.122;5.250;2023-09-18T05:58:04;15.0;;;11.0;;
62457;SDS011;48509;52.122;5.250;2023-09-18T05:59:40;11.2;;;10.0;;
62457;SDS011;48509;52.122;5.250;2023-09-18T06:01:16;12.2;;;10.9;;
62457;SDS011;48509;52.122;5.250;2023-09-18T06:02:52;14.5;;;11.9;;
62457;SDS011;48509;52.122;5.250;2023-09-18T06:06:04;35.0;;;10.8;;
62457;SDS011;48509;52.122;5.250;2023-09-18T06:07:41;17.61;;;10.1;;
62457;SDS011;48509;52.122;5.250;2023-09-18T06:09:17;11.9;;;9.81;;
62457;SDS011;48509;52.122;5.250;2023-09-18T06:12:30;11.9;;;10.7;;
62457;SDS011;48509;52.122;5.250;2023-09-18T06:14:06;12.3;;;11.0;;
62457;SDS011;48509;52.122;5.250;2023-09-18T06:15:42;19.7;;;11.8;;
62457;SDS011;48509;52.122;5.250;2023-09-18T06:18:54;10.5;;;9.4;;
62457;SDS011;48509;52.122;5.250;2023-09-18T06:20:30;12.6;;;10.3;;
62457;SDS011;48509;52.122;5.250;2023-09-18T06:22:06;15.3;;;11.8;;
62457;SDS011;48509;52.122;5.250;2023-09-18T06:23:42;20.9;;;13.3;;
62457;SDS011;48509;52.122;5.250;2023-09-18T06:26:54;14.5;;;12.0;;
62457;SDS011;48509;52.122;5.250;2023-09-18T06:28:30;15.4;;;13.8;;
62457;SDS011;48509;52.122;5.250;2023-09-18T06:30:07;15.5;;;13.4;;
62457;SDS011;48509;52.122;5.250;2023-09-18T06:33:21;15.5;;;12.5;;
62457;SDS011;48509;52.122;5.250;2023-09-18T06:34:57;16.3;;;12.6;;
62457;SDS011;48509;52.122;5.250;2023-09-18T06:36:33;13.8;;;12.1;;
62457;SDS011;48509;52.122;5.250;2023-09-18T06:39:45;12.6;;;11.4;;
62457;SDS011;48509;52.122;5.250;2023-09-18T06:41:21;13.6;;;12.2;;
62457;SDS011;48509;52.122;5.250;2023-09-18T06:42:58;14.8;;;11.7;;
62457;SDS011;48509;52.122;5.250;2023-09-18T06:46:11;14.2;;;12.2;;
62457;SDS011;48509;52.122;5.250;2023-09-18T06:47:47;13.8;;;11.3;;
62457;SDS011;48509;52.122;5.250;2023-09-18T06:49:23;12.0;;;10.6;;
62457;SDS011;48509;52.122;5.250;2023-09-18T06:50:59;12.2;;;10.9;;
62457;SDS011;48509;52.122;5.250;2023-09-18T06:54:11;18.5;;;10.4;;
62457;SDS011;48509;52.122;5.250;2023-09-18T06:55:47;11.6;;;10.21;;
62457;SDS011;48509;52.122;5.250;2023-09-18T06:57:23;15.8;;;11.1;;
62457;SDS011;48509;52.122;5.250;2023-09-18T07:00:35;11.2;;;9.1;;
62457;SDS011;48509;52.122;5.250;2023-09-18T07:02:12;10.5;;;9.4;;
62457;SDS011;48509;52.122;5.250;2023-09-18T07:03:48;13.2;;;10.21;;
62457;SDS011;48509;52.122;5.250;2023-09-18T07:07:00;10.0;;;8.81;;
62457;SDS011;48509;52.122;5.250;2023-09-18T07:08:36;12.5;;;8.71;;
62457;SDS011;48509;52.122;5.250;2023-09-18T07:10:12;13.0;;;8.9;;
62457;SDS011;48509;52.122;5.250;2023-09-18T07:13:24;11.1;;;10.1;;
62457;SDS011;48509;52.122;5.250;2023-09-18T07:15:01;10.5;;;8.71;;
62457;SDS011;48509;52.122;5.250;2023-09-18T07:16:37;12.9;;;9.81;;
62457;SDS011;48509;52.122;5.250;2023-09-18T07:18:14;14.4;;;10.9;;
62457;SDS011;48509;52.122;5.250;2023-09-18T07:21:26;11.9;;;10.0;;
62457;SDS011;48509;52.122;5.250;2023-09-18T07:23:02;12.7;;;9.6;;
62457;SDS011;48509;52.122;5.250;2023-09-18T07:24:38;9.5;;;8.5;;
62457;SDS011;48509;52.122;5.250;2023-09-18T07:27:50;12.5;;;9.1;;
62457;SDS011;48509;52.122;5.250;2023-09-18T07:29:26;11.9;;;9.4;;
62457;SDS011;48509;52.122;5.250;2023-09-18T07:31:04;18.61;;;9.9;;
62457;SDS011;48509;52.122;5.250;2023-09-18T07:34:17;11.9;;;10.6;;
62457;SDS011;48509;52.122;5.250;2023-09-18T07:35:53;10.4;;;9.31;;
62457;SDS011;48509;52.122;5.250;2023-09-18T07:37:29;11.2;;;9.4;;
62457;SDS011;48509;52.122;5.250;2023-09-18T07:39:05;11.8;;;10.6;;
62457;SDS011;48509;52.122;5.250;2023-09-18T07:42:17;12.2;;;9.71;;
62457;SDS011;48509;52.122;5.250;2023-09-18T07:43:53;12.6;;;9.5;;
62457;SDS011;48509;52.122;5.250;2023-09-18T07:45:29;10.7;;;9.6;;
62457;SDS011;48509;52.122;5.250;2023-09-18T07:48:41;10.8;;;9.6;;
62457;SDS011;48509;52.122;5.250;2023-09-18T07:50:18;9.81;;;8.81;;
62457;SDS011;48509;52.122;5.250;2023-09-18T07:51:54;10.3;;;9.31;;
62457;SDS011;48509;52.122;5.250;2023-09-18T07:55:07;10.0;;;9.0;;
62457;SDS011;48509;52.122;5.250;2023-09-18T07:56:43;10.3;;;8.71;;
62457;SDS011;48509;52.122;5.250;2023-09-18T07:58:19;9.31;;;8.31;;
62457;SDS011;48509;52.122;5.250;2023-09-18T08:01:31;11.8;;;9.1;;
62457;SDS011;48509;52.122;5.250;2023-09-18T08:03:08;10.0;;;9.0;;
62457;SDS011;48509;52.122;5.250;2023-09-18T08:04:44;11.0;;;9.6;;
62457;SDS011;48509;52.122;5.250;2023-09-18T08:06:20;13.1;;;8.81;;
62457;SDS011;48509;52.122;5.250;2023-09-18T08:09:32;11.5;;;9.4;;
62457;SDS011;48509;52.122;5.250;2023-09-18T08:11:08;11.5;;;8.81;;
62457;SDS011;48509;52.122;5.250;2023-09-18T08:12:44;10.7;;;7.9;;
62457;SDS011;48509;52.122;5.250;2023-09-18T08:15:56;9.4;;;8.5;;
62457;SDS011;48509;52.122;5.250;2023-09-18T08:17:32;11.9;;;9.31;;
62457;SDS011;48509;52.122;5.250;2023-09-18T08:19:08;9.6;;;7.9;;
62457;SDS011;48509;52.122;5.250;2023-09-18T08:22:21;11.0;;;8.0;;
62457;SDS011;48509;52.122;5.250;2023-09-18T08:23:57;7.9;;;7.1;;
62457;SDS011;48509;52.122;5.250;2023-09-18T08:25:33;8.31;;;7.4;;
62457;SDS011;48509;52.122;5.250;2023-09-18T08:27:09;9.31;;;7.5;;
62457;SDS011;48509;52.122;5.250;2023-09-18T08:30:21;10.4;;;6.4;;
62457;SDS011;48509;52.122;5.250;2023-09-18T08:31:57;9.6;;;8.0;;
62457;SDS011;48509;52.122;5.250;2023-09-18T08:33:33;16.9;;;7.8;;
62457;SDS011;48509;52.122;5.250;2023-09-18T08:36:46;8.0;;;7.2;;
62457;SDS011;48509;52.122;5.250;2023-09-18T08:38:22;9.0;;;7.3;;
62457;SDS011;48509;52.122;5.250;2023-09-18T08:39:58;7.5;;;6.5;;
62457;SDS011;48509;52.122;5.250;2023-09-18T08:43:17;10.21;;;6.7;;
62457;SDS011;48509;52.122;5.250;2023-09-18T08:44:54;14.7;;;7.8;;
62457;SDS011;48509;52.122;5.250;2023-09-18T08:46:34;7.7;;;6.8;;
62457;SDS011;48509;52.122;5.250;2023-09-18T08:48:11;10.0;;;6.7;;
62457;SDS011;48509;52.122;5.250;2023-09-18T08:51:26;8.0;;;6.9;;
62457;SDS011;48509;52.122;5.250;2023-09-18T08:53:03;9.21;;;6.8;;
62457;SDS011;48509;52.122;5.250;2023-09-18T08:54:39;8.2;;;6.7;;
62457;SDS011;48509;52.122;5.250;2023-09-18T08:57:53;7.7;;;6.4;;
62457;SDS011;48509;52.122;5.250;2023-09-18T08:59:33;10.1;;;6.4;;
62457;SDS011;48509;52.122;5.250;2023-09-18T09:01:11;8.31;;;6.8;;
62457;SDS011;48509;52.122;5.250;2023-09-18T09:02:47;8.1;;;6.1;;
62457;SDS011;48509;52.122;5.250;2023-09-18T09:05:59;7.1;;;6.1;;
62457;SDS011;48509;52.122;5.250;2023-09-18T09:07:37;9.9;;;6.6;;
62457;SDS011;48509;52.122;5.250;2023-09-18T09:09:13;9.4;;;6.0;;
62457;SDS011;48509;52.122;5.250;2023-09-18T09:12:57;6.4;;;5.7;;
62457;SDS011;48509;52.122;5.250;2023-09-18T09:14:34;5.9;;;4.91;;
62457;SDS011;48509;52.122;5.250;2023-09-18T09:16:10;5.7;;;5.11;;
62457;SDS011;48509;52.122;5.250;2023-09-18T09:17:48;7.1;;;5.11;;
62457;SDS011;48509;52.122;5.250;2023-09-18T09:21:05;7.5;;;5.2;;
62457;SDS011;48509;52.122;5.250;2023-09-18T09:22:42;7.7;;;5.9;;
62457;SDS011;48509;52.122;5.250;2023-09-18T09:24:18;6.2;;;5.6;;
62457;SDS011;48509;52.122;5.250;2023-09-18T09:26:12;8.2;;;5.4;;
62457;SDS011;48509;52.122;5.250;2023-09-18T09:27:50;5.7;;;5.11;;
62457;SDS011;48509;52.122;5.250;2023-09-18T09:31:02;6.7;;;4.91;;
62457;SDS011;48509;52.122;5.250;2023-09-18T09:32:39;7.1;;;4.5;;
62457;SDS011;48509;52.122;5.250;2023-09-18T09:34:24;7.6;;;5.7;;
62457;SDS011;48509;52.122;5.250;2023-09-18T09:37:40;8.31;;;5.6;;
62457;SDS011;48509;52.122;5.250;2023-09-18T09:39:16;5.9;;;5.0;;
62457;SDS011;48509;52.122;5.250;2023-09-18T09:40:53;6.1;;;5.3;;
62457;SDS011;48509;52.122;5.250;2023-09-18T09:42:29;5.7;;;5.2;;
62457;SDS011;48509;52.122;5.250;2023-09-18T09:45:55;8.5;;;6.1;;
62457;SDS011;48509;52.122;5.250;2023-09-18T09:47:33;7.5;;;6.3;;
62457;SDS011;48509;52.122;5.250;2023-09-18T09:49:10;6.3;;;5.6;;
62457;SDS011;48509;52.122;5.250;2023-09-18T09:52:23;8.31;;;6.9;;
62457;SDS011;48509;52.122;5.250;2023-09-18T09:53:59;11.3;;;6.5;;
62457;SDS011;48509;52.122;5.250;2023-09-18T09:55:36;8.4;;;6.2;;
62457;SDS011;48509;52.122;5.250;2023-09-18T09:57:12;6.8;;;6.1;;
62457;SDS011;48509;52.122;5.250;2023-09-18T10:00:41;9.1;;;6.8;;
62457;SDS011;48509;52.122;5.250;2023-09-18T10:02:21;11.0;;;7.1;;
62457;SDS011;48509;52.122;5.250;2023-09-18T10:03:57;10.4;;;7.2;;
62457;SDS011;48509;52.122;5.250;2023-09-18T10:05:35;7.0;;;6.4;;
62457;SDS011;48509;52.122;5.250;2023-09-18T10:08:48;10.5;;;7.9;;
62457;SDS011;48509;52.122;5.250;2023-09-18T10:10:26;8.2;;;7.2;;
62457;SDS011;48509;52.122;5.250;2023-09-18T10:12:08;8.1;;;7.3;;
62457;SDS011;48509;52.122;5.250;2023-09-18T10:15:31;8.2;;;7.5;;
62457;SDS011;48509;52.122;5.250;2023-09-18T10:17:11;6.9;;;6.2;;
62457;SDS011;48509;52.122;5.250;2023-09-18T10:18:55;7.4;;;6.7;;
62457;SDS011;48509;52.122;5.250;2023-09-18T10:20:41;7.9;;;5.9;;
62457;SDS011;48509;52.122;5.250;2023-09-18T10:22:19;6.6;;;6.0;;
62457;SDS011;48509;52.122;5.250;2023-09-18T10:25:50;8.71;;;6.6;;
62457;SDS011;48509;52.122;5.250;2023-09-18T10:27:31;6.8;;;6.1;;
62457;SDS011;48509;52.122;5.250;2023-09-18T10:29:08;8.71;;;5.9;;
62457;SDS011;48509;52.122;5.250;2023-09-18T10:30:46;6.6;;;5.7;;
62457;SDS011;48509;52.122;5.250;2023-09-18T10:34:02;7.7;;;5.8;;
62457;SDS011;48509;52.122;5.250;2023-09-18T10:35:40;7.2;;;5.4;;
62457;SDS011;48509;52.122;5.250;2023-09-18T10:37:17;11.8;;;6.1;;
62457;SDS011;48509;52.122;5.250;2023-09-18T10:40:31;9.0;;;5.6;;
62457;SDS011;48509;52.122;5.250;2023-09-18T10:42:10;5.9;;;5.3;;
62457;SDS011;48509;52.122;5.250;2023-09-18T10:43:51;5.9;;;5.11;;
62457;SDS011;48509;52.122;5.250;2023-09-18T10:45:30;6.2;;;5.6;;
62457;SDS011;48509;52.122;5.250;2023-09-18T10:48:47;6.6;;;5.2;;
62457;SDS011;48509;52.122;5.250;2023-09-18T10:50:24;5.9;;;4.8;;
62457;SDS011;48509;52.122;5.250;2023-09-18T10:52:02;7.4;;;4.61;;
62457;SDS011;48509;52.122;5.250;2023-09-18T10:53:39;6.3;;;5.0;;
62457;SDS011;48509;52.122;5.250;2023-09-18T10:56:52;8.6;;;4.41;;
62457;SDS011;48509;52.122;5.250;2023-09-18T10:58:28;7.5;;;5.2;;
62457;SDS011;48509;52.122;5.250;2023-09-18T11:00:05;7.7;;;4.91;;
62457;SDS011;48509;52.122;5.250;2023-09-18T11:03:22;6.1;;;4.8;;
62457;SDS011;48509;52.122;5.250;2023-09-18T11:04:59;7.9;;;5.0;;
62457;SDS011;48509;52.122;5.250;2023-09-18T11:07:07;6.5;;;5.5;;
62457;SDS011;48509;52.122;5.250;2023-09-18T11:08:43;6.9;;;5.0;;
62457;SDS011;48509;52.122;5.250;2023-09-18T11:10:24;6.9;;;4.61;;
62457;SDS011;48509;52.122;5.250;2023-09-18T11:13:40;8.1;;;4.8;;
62457;SDS011;48509;52.122;5.250;2023-09-18T11:15:26;5.9;;;5.2;;
62457;SDS011;48509;52.122;5.250;2023-09-18T11:17:07;5.3;;;4.7;;
62457;SDS011;48509;52.122;5.250;2023-09-18T11:19:07;6.6;;;4.3;;
62457;SDS011;48509;52.122;5.250;2023-09-18T11:20:49;8.5;;;5.0;;
62457;SDS011;48509;52.122;5.250;2023-09-18T11:24:23;10.21;;;5.11;;
62457;SDS011;48509;52.122;5.250;2023-09-18T11:26:02;5.5;;;4.61;;
62457;SDS011;48509;52.122;5.250;2023-09-18T11:27:52;4.91;;;4.41;;
62457;SDS011;48509;52.122;5.250;2023-09-18T11:29:28;5.8;;;4.1;;
62457;SDS011;48509;52.122;5.250;2023-09-18T11:32:42;5.3;;;3.9;;
62457;SDS011;48509;52.122;5.250;2023-09-18T11:34:20;7.5;;;4.41;;
62457;SDS011;48509;52.122;5.250;2023-09-18T11:36:01;4.8;;;3.8;;
62457;SDS011;48509;52.122;5.250;2023-09-18T11:37:40;10.1;;;4.5;;
62457;SDS011;48509;52.122;5.250;2023-09-18T11:41:26;9.5;;;4.0;;
62457;SDS011;48509;52.122;5.250;2023-09-18T11:43:19;8.0;;;3.9;;
62457;SDS011;48509;52.122;5.250;2023-09-18T11:44:57;8.1;;;4.41;;
62457;SDS011;48509;52.122;5.250;2023-09-18T11:46:34;7.0;;;4.5;;
62457;SDS011;48509;52.122;5.250;2023-09-18T11:48:10;6.3;;;4.41;;
62457;SDS011;48509;52.122;5.250;2023-09-18T11:51:26;6.3;;;4.1;;
62457;SDS011;48509;52.122;5.250;2023-09-18T11:53:04;7.4;;;4.3;;
62457;SDS011;48509;52.122;5.250;2023-09-18T11:54:41;5.11;;;3.8;;
62457;SDS011;48509;52.122;5.250;2023-09-18T11:57:53;8.4;;;3.8;;
62457;SDS011;48509;52.122;5.250;2023-09-18T11:59:33;4.91;;;3.5;;
62457;SDS011;48509;52.122;5.250;2023-09-18T12:01:10;6.1;;;4.91;;
62457;SDS011;48509;52.122;5.250;2023-09-18T12:02:46;6.6;;;4.7;;
62457;SDS011;48509;52.122;5.250;2023-09-18T12:06:04;7.3;;;3.9;;
62457;SDS011;48509;52.122;5.250;2023-09-18T12:07:40;10.6;;;4.41;;
62457;SDS011;48509;52.122;5.250;2023-09-18T12:09:18;6.7;;;4.41;;
62457;SDS011;48509;52.122;5.250;2023-09-18T12:12:30;7.5;;;4.5;;
62457;SDS011;48509;52.122;5.250;2023-09-18T12:14:06;5.7;;;4.2;;
62457;SDS011;48509;52.122;5.250;2023-09-18T12:15:41;5.8;;;4.61;;
62457;SDS011;48509;52.122;5.250;2023-09-18T12:17:17;8.0;;;4.91;;
62457;SDS011;48509;52.122;5.250;2023-09-18T12:20:29;7.3;;;5.3;;
62457;SDS011;48509;52.122;5.250;2023-09-18T12:22:06;8.1;;;5.6;;
62457;SDS011;48509;52.122;5.250;2023-09-18T12:23:42;8.6;;;5.6;;
62457;SDS011;48509;52.122;5.250;2023-09-18T12:26:56;7.1;;;5.6;;
62457;SDS011;48509;52.122;5.250;2023-09-18T12:28:35;8.81;;;5.6;;
62457;SDS011;48509;52.122;5.250;2023-09-18T12:30:12;7.4;;;5.3;;
62457;SDS011;48509;52.122;5.250;2023-09-18T12:33:24;8.71;;;4.91;;
62457;SDS011;48509;52.122;5.250;2023-09-18T12:35:01;6.9;;;5.0;;
62457;SDS011;48509;52.122;5.250;2023-09-18T12:36:41;9.9;;;4.3;;
62457;SDS011;48509;52.122;5.250;2023-09-18T12:38:18;6.1;;;3.8;;
62457;SDS011;48509;52.122;5.250;2023-09-18T12:41:31;7.8;;;4.0;;